Time;durP1;ratioP1;P1;durP2;ratioP2;P2;SDS_P1;SDS_P2;PMS_P1;PMS_P2;Temp;Humidity;BMP_temperature;BMP_pressure;BME280_temperature;BME280_humidity;BME280_pressure;Samples;Min_cycle;Max_cycle;Signal;HPM_P1;HPM_P2
2024/01/06 00:01:34;;;;;;;50.20;46.35;;;;;;;;;;5013040;28;20510;-74
2024/01/06 00:04:01;;;;;;;48.33;44.77;;;;;;;;;;5013794;28;20233;-76
2024/01/06 00:06:28;;;;;;;48.07;44.33;;;;;;;;;;5013686;28;20434;-76
2024/01/06 00:08:55;;;;;;;43.37;40.47;;;;;;;;;;5013023;28;20932;-75
2024/01/06 00:11:22;;;;;;;44.20;40.90;;;;;;;;;;5013178;28;20936;-76
2024/01/06 00:13:49;;;;;;;38.37;36.00;;;;;;;;;;5033162;28;20208;-75
2024/01/06 00:16:19;;;;;;;42.77;39.77;;;;;;;;;;5033091;28;20451;-76
2024/01/06 00:18:46;;;;;;;41.93;38.83;;;;;;;;;;5033561;28;20483;-76
2024/01/06 00:21:13;;;;;;;38.30;35.80;;;;;;;;;;5031515;28;20443;-75
2024/01/06 00:23:41;;;;;;;42.50;39.50;;;;;;;;;;5013368;28;20869;-75
2024/01/06 00:26:08;;;;;;;41.97;38.97;;;;;;;;;;5013486;28;20477;-75
2024/01/06 00:28:35;;;;;;;37.20;34.63;;;;;;;;;;5013317;28;20518;-76
2024/01/06 00:31:02;;;;;;;38.20;35.40;;;;;;;;;;5013172;28;20544;-75
2024/01/06 00:33:30;;;;;;;38.73;36.03;;;;;;;;;;5013320;28;20452;-76
2024/01/06 00:35:57;;;;;;;38.83;35.53;;;;;;;;;;5012176;28;20567;-75
2024/01/06 00:38:24;;;;;;;40.33;37.40;;;;;;;;;;5012961;28;20570;-76
2024/01/06 00:40:51;;;;;;;40.47;37.13;;;;;;;;;;5005892;28;20494;-75
2024/01/06 00:43:18;;;;;;;40.03;36.97;;;;;;;;;;5005031;28;20452;-75
2024/01/06 00:45:45;;;;;;;37.60;34.90;;;;;;;;;;5017382;28;20444;-76
2024/01/06 00:48:13;;;;;;;39.85;36.78;;;;;;;;;;5012081;28;20476;-76
2024/01/06 00:50:41;;;;;;;43.97;40.30;;;;;;;;;;5012368;28;20225;-75
2024/01/06 00:53:08;;;;;;;36.50;34.10;;;;;;;;;;5015148;28;20451;-75
2024/01/06 00:55:35;;;;;;;37.73;35.27;;;;;;;;;;5012570;28;20499;-75
2024/01/06 00:58:02;;;;;;;38.00;35.03;;;;;;;;;;5007767;28;20560;-77
2024/01/06 01:00:29;;;;;;;37.80;34.95;;;;;;;;;;4992219;28;20969;-76
2024/01/06 01:02:56;;;;;;;35.40;32.77;;;;;;;;;;4992938;28;20207;-75
2024/01/06 01:05:23;;;;;;;35.60;33.03;;;;;;;;;;4992832;28;20499;-75
2024/01/06 01:07:52;;;;;;;37.58;34.92;;;;;;;;;;4992365;28;20725;-76
2024/01/06 01:10:19;;;;;;;37.87;35.07;;;;;;;;;;4992543;28;20654;-74
2024/01/06 01:12:46;;;;;;;37.42;34.85;;;;;;;;;;4992261;28;20445;-75
2024/01/06 01:15:12;;;;;;;37.83;35.00;;;;;;;;;;4992512;28;20631;-75
2024/01/06 01:17:39;;;;;;;35.40;33.00;;;;;;;;;;4992322;28;20840;-76
2024/01/06 01:20:07;;;;;;;38.50;35.70;;;;;;;;;;4992755;28;20217;-76
2024/01/06 01:22:34;;;;;;;37.53;34.80;;;;;;;;;;4992102;28;20605;-76
2024/01/06 01:25:07;;;;;;;37.77;34.87;;;;;;;;;;4992367;28;20852;-75
2024/01/06 01:27:34;;;;;;;37.13;34.47;;;;;;;;;;4996186;28;20543;-75
2024/01/06 01:30:01;;;;;;;37.22;34.63;;;;;;;;;;4992280;28;20503;-76
2024/01/06 01:32:28;;;;;;;37.97;35.17;;;;;;;;;;5000883;28;20286;-74
2024/01/06 01:34:55;;;;;;;40.10;36.90;;;;;;;;;;4994154;28;20828;-76
2024/01/06 01:37:22;;;;;;;40.43;37.40;;;;;;;;;;5008745;28;20235;-76
2024/01/06 01:39:49;;;;;;;39.70;36.90;;;;;;;;;;5011586;28;20531;-76
2024/01/06 01:42:17;;;;;;;35.60;33.13;;;;;;;;;;5011139;28;20448;-76
2024/01/06 01:44:44;;;;;;;36.88;34.08;;;;;;;;;;5011527;28;20452;-76
2024/01/06 01:47:11;;;;;;;36.83;34.30;;;;;;;;;;5011126;28;20616;-75
2024/01/06 01:49:39;;;;;;;39.30;36.47;;;;;;;;;;5011572;28;20436;-75
2024/01/06 01:52:06;;;;;;;38.47;35.67;;;;;;;;;;5010982;28;20451;-76
2024/01/06 01:54:34;;;;;;;38.50;35.50;;;;;;;;;;5011348;28;20456;-75
2024/01/06 01:57:01;;;;;;;38.77;36.03;;;;;;;;;;5009790;28;20611;-75
2024/01/06 01:59:29;;;;;;;38.10;35.50;;;;;;;;;;5010712;28;20514;-76
2024/01/06 02:01:57;;;;;;;38.40;35.60;;;;;;;;;;5010488;28;20445;-75
2024/01/06 02:04:24;;;;;;;38.63;36.03;;;;;;;;;;5011171;28;20444;-75
2024/01/06 02:06:51;;;;;;;38.30;35.67;;;;;;;;;;5011219;28;20468;-75
2024/01/06 02:09:18;;;;;;;40.63;37.57;;;;;;;;;;5010433;28;20480;-76
2024/01/06 02:11:45;;;;;;;38.47;35.47;;;;;;;;;;5010256;28;20452;-75
2024/01/06 02:14:12;;;;;;;40.53;37.22;;;;;;;;;;5010929;28;20506;-75
2024/01/06 02:16:40;;;;;;;39.30;36.30;;;;;;;;;;5010086;28;20279;-75
2024/01/06 02:19:09;;;;;;;40.37;37.07;;;;;;;;;;5009934;28;20516;-74
2024/01/06 02:21:37;;;;;;;41.60;38.42;;;;;;;;;;5010064;28;20940;-75
2024/01/06 02:24:06;;;;;;;40.47;36.97;;;;;;;;;;5010628;28;20209;-74
2024/01/06 02:26:32;;;;;;;39.63;36.60;;;;;;;;;;5010335;28;20225;-75
2024/01/06 02:28:59;;;;;;;39.90;36.70;;;;;;;;;;5010795;28;20427;-75
2024/01/06 02:31:26;;;;;;;38.23;35.27;;;;;;;;;;5009575;28;20452;-76
2024/01/06 02:33:53;;;;;;;38.85;35.30;;;;;;;;;;5010471;28;20444;-75
2024/01/06 02:36:20;;;;;;;37.87;34.77;;;;;;;;;;5010053;28;20232;-75
2024/01/06 02:38:47;;;;;;;40.57;37.50;;;;;;;;;;5010467;28;20484;-75
2024/01/06 02:41:16;;;;;;;41.30;37.90;;;;;;;;;;5009862;28;20448;-75
2024/01/06 02:43:43;;;;;;;39.63;36.57;;;;;;;;;;5010687;28;20460;-76
2024/01/06 02:46:09;;;;;;;40.80;37.70;;;;;;;;;;5010551;28;20444;-75
2024/01/06 02:48:36;;;;;;;39.00;36.00;;;;;;;;;;5010259;28;20427;-75
2024/01/06 02:51:04;;;;;;;38.93;35.70;;;;;;;;;;5009871;28;20456;-76
2024/01/06 02:53:30;;;;;;;39.30;36.30;;;;;;;;;;5010420;28;20631;-75
2024/01/06 02:55:57;;;;;;;39.07;36.20;;;;;;;;;;5010126;28;20534;-74
2024/01/06 02:58:26;;;;;;;38.47;35.47;;;;;;;;;;5010399;28;20550;-76
2024/01/06 03:00:53;;;;;;;38.60;35.65;;;;;;;;;;5009731;28;20510;-74
2024/01/06 03:03:20;;;;;;;38.10;35.10;;;;;;;;;;5010339;28;20206;-76
2024/01/06 03:05:48;;;;;;;38.95;35.80;;;;;;;;;;5010535;28;20453;-75
2024/01/06 03:08:16;;;;;;;40.43;37.30;;;;;;;;;;5009813;28;20241;-76
2024/01/06 03:10:43;;;;;;;43.17;39.67;;;;;;;;;;5009591;28;20449;-76
2024/01/06 03:13:10;;;;;;;41.37;37.97;;;;;;;;;;5010110;28;20471;-76
2024/01/06 03:15:38;;;;;;;43.00;39.30;;;;;;;;;;5010007;28;20933;-75
2024/01/06 03:18:05;;;;;;;44.77;40.57;;;;;;;;;;5009283;28;20488;-75
2024/01/06 03:20:32;;;;;;;42.50;39.10;;;;;;;;;;5013942;28;20871;-75
2024/01/06 03:22:59;;;;;;;40.93;37.33;;;;;;;;;;5013754;28;20456;-76
2024/01/06 03:25:26;;;;;;;42.63;39.23;;;;;;;;;;5009876;28;20507;-75
2024/01/06 03:27:53;;;;;;;41.53;37.93;;;;;;;;;;5010184;28;20530;-75
2024/01/06 03:30:20;;;;;;;43.30;39.70;;;;;;;;;;5009804;28;20490;-76
2024/01/06 03:32:48;;;;;;;41.97;38.40;;;;;;;;;;5009250;28;20448;-75
2024/01/06 03:35:15;;;;;;;41.50;38.23;;;;;;;;;;5010063;28;20448;-75
2024/01/06 03:37:43;;;;;;;42.87;38.87;;;;;;;;;;5000201;28;20484;-75
2024/01/06 03:40:10;;;;;;;42.80;39.10;;;;;;;;;;4990540;28;20496;-75
2024/01/06 03:42:37;;;;;;;43.85;40.13;;;;;;;;;;4989872;28;20464;-75
2024/01/06 03:45:04;;;;;;;44.63;40.43;;;;;;;;;;4990737;28;20207;-75
2024/01/06 03:47:31;;;;;;;44.50;40.90;;;;;;;;;;4990173;28;20472;-75
2024/01/06 03:50:00;;;;;;;46.67;42.27;;;;;;;;;;4990340;28;20550;-75
2024/01/06 03:52:27;;;;;;;44.77;41.00;;;;;;;;;;4989402;28;20450;-76
2024/01/06 03:54:53;;;;;;;45.53;41.78;;;;;;;;;;4990141;28;20539;-75
2024/01/06 03:57:20;;;;;;;43.73;40.00;;;;;;;;;;4990114;28;20230;-75
2024/01/06 03:59:47;;;;;;;39.63;36.13;;;;;;;;;;4989839;28;20485;-75
2024/01/06 04:02:14;;;;;;;46.13;42.10;;;;;;;;;;4989284;28;21023;-74
2024/01/06 04:04:41;;;;;;;45.60;41.07;;;;;;;;;;4990375;28;20369;-75
2024/01/06 04:07:10;;;;;;;44.10;40.50;;;;;;;;;;4989863;28;20461;-75
2024/01/06 04:09:36;;;;;;;44.17;40.10;;;;;;;;;;4990206;28;20496;-74
2024/01/06 04:12:04;;;;;;;45.97;41.63;;;;;;;;;;4989897;28;20470;-76
2024/01/06 04:14:30;;;;;;;44.97;40.67;;;;;;;;;;4990305;28;20492;-75
2024/01/06 04:16:57;;;;;;;42.93;39.10;;;;;;;;;;4989016;28;20535;-74
2024/01/06 04:19:24;;;;;;;43.13;39.30;;;;;;;;;;4990336;28;20481;-76
2024/01/06 04:21:52;;;;;;;45.03;40.83;;;;;;;;;;4993394;28;20441;-75
2024/01/06 04:24:20;;;;;;;42.47;38.57;;;;;;;;;;4993495;28;20755;-76
2024/01/06 04:26:47;;;;;;;45.57;41.57;;;;;;;;;;4993228;28;20881;-75
2024/01/06 04:29:14;;;;;;;46.47;41.93;;;;;;;;;;5000269;28;20916;-75
2024/01/06 04:31:41;;;;;;;46.47;42.30;;;;;;;;;;5012623;28;20861;-75
2024/01/06 04:34:08;;;;;;;48.13;43.93;;;;;;;;;;5013279;28;20522;-75
2024/01/06 04:36:35;;;;;;;46.10;42.05;;;;;;;;;;5005946;28;20544;-76
2024/01/06 04:39:02;;;;;;;45.30;41.30;;;;;;;;;;4993348;28;20234;-74
2024/01/06 04:41:30;;;;;;;44.27;40.37;;;;;;;;;;4992660;28;20476;-74
2024/01/06 04:43:57;;;;;;;43.03;39.23;;;;;;;;;;4993855;28;20523;-77
2024/01/06 04:46:24;;;;;;;39.80;36.70;;;;;;;;;;4998623;28;20494;-75
2024/01/06 04:48:52;;;;;;;43.53;39.67;;;;;;;;;;5012278;28;20479;-74
2024/01/06 04:51:19;;;;;;;42.10;38.50;;;;;;;;;;5012130;28;20808;-75
2024/01/06 04:53:46;;;;;;;41.30;37.70;;;;;;;;;;5012614;28;20473;-75
2024/01/06 04:56:13;;;;;;;41.07;37.67;;;;;;;;;;4999694;28;20508;-74
2024/01/06 04:58:41;;;;;;;39.03;35.87;;;;;;;;;;4992768;28;20442;-75
2024/01/06 05:01:08;;;;;;;39.67;36.30;;;;;;;;;;4992116;28;20449;-75
2024/01/06 05:03:34;;;;;;;39.93;36.57;;;;;;;;;;4992655;28;20536;-76
2024/01/06 05:06:01;;;;;;;39.33;35.90;;;;;;;;;;4995922;28;20445;-76
2024/01/06 05:08:30;;;;;;;38.88;35.60;;;;;;;;;;5025612;28;20496;-76
2024/01/06 05:10:57;;;;;;;38.27;34.77;;;;;;;;;;5007194;28;20627;-75
2024/01/06 05:13:24;;;;;;;35.30;32.40;;;;;;;;;;4992544;28;20453;-75
2024/01/06 05:15:53;;;;;;;36.57;33.37;;;;;;;;;;4992571;28;20520;-74
2024/01/06 05:18:20;;;;;;;35.00;32.13;;;;;;;;;;4992439;28;20473;-75
2024/01/06 05:20:47;;;;;;;33.58;30.75;;;;;;;;;;4992219;28;20493;-76
2024/01/06 05:23:13;;;;;;;34.87;32.17;;;;;;;;;;4992507;28;20214;-76
2024/01/06 05:25:40;;;;;;;33.70;30.90;;;;;;;;;;4992311;28;20453;-76
2024/01/06 05:28:07;;;;;;;32.93;30.07;;;;;;;;;;4997423;28;20477;-76
2024/01/06 05:30:34;;;;;;;32.53;29.73;;;;;;;;;;5011564;28;20448;-76
2024/01/06 05:33:03;;;;;;;35.93;32.80;;;;;;;;;;5011508;28;20449;-74
2024/01/06 05:35:30;;;;;;;34.30;31.10;;;;;;;;;;5011931;28;20805;-74
2024/01/06 05:37:57;;;;;;;33.87;30.97;;;;;;;;;;5012161;28;20480;-75
2024/01/06 05:40:24;;;;;;;33.87;30.67;;;;;;;;;;4994126;28;20493;-76
2024/01/06 05:42:55;;;;;;;33.23;30.33;;;;;;;;;;4991544;28;20453;-74
2024/01/06 05:45:22;;;;;;;35.10;32.10;;;;;;;;;;4992079;28;20460;-74
2024/01/06 05:47:49;;;;;;;35.67;32.53;;;;;;;;;;4991975;28;20466;-75
2024/01/06 05:50:18;;;;;;;34.83;32.07;;;;;;;;;;4992135;28;20499;-75
2024/01/06 05:52:47;;;;;;;33.77;30.93;;;;;;;;;;4991317;28;20889;-75
2024/01/06 05:55:14;;;;;;;30.93;28.63;;;;;;;;;;4991749;28;20460;-75
2024/01/06 05:57:41;;;;;;;29.03;26.83;;;;;;;;;;4991916;28;20477;-75
2024/01/06 06:00:10;;;;;;;30.40;28.30;;;;;;;;;;4991915;28;20520;-76
2024/01/06 06:02:38;;;;;;;31.00;28.70;;;;;;;;;;4991432;28;20519;-75
2024/01/06 06:05:06;;;;;;;31.60;29.30;;;;;;;;;;4991946;28;20448;-74
2024/01/06 06:07:38;;;;;;;31.03;28.53;;;;;;;;;;5011011;28;20601;-76
2024/01/06 06:10:06;;;;;;;31.10;29.00;;;;;;;;;;5011077;28;20526;-75
2024/01/06 06:12:33;;;;;;;30.80;28.60;;;;;;;;;;5010926;28;20510;-76
2024/01/06 06:15:00;;;;;;;30.33;28.23;;;;;;;;;;5010873;28;20498;-75
2024/01/06 06:17:27;;;;;;;29.07;27.17;;;;;;;;;;5011096;28;20518;-76
2024/01/06 06:19:54;;;;;;;30.90;28.40;;;;;;;;;;5011106;28;20534;-75
2024/01/06 06:22:21;;;;;;;30.40;28.20;;;;;;;;;;5029574;28;20494;-75
2024/01/06 06:24:50;;;;;;;32.60;30.37;;;;;;;;;;5030454;28;20452;-75
2024/01/06 06:27:17;;;;;;;31.53;29.13;;;;;;;;;;5024399;28;20538;-75
2024/01/06 06:29:44;;;;;;;30.30;28.10;;;;;;;;;;4991273;28;20456;-76
2024/01/06 06:32:10;;;;;;;29.50;27.47;;;;;;;;;;4990705;28;20449;-75
2024/01/06 06:34:37;;;;;;;31.83;29.33;;;;;;;;;;4991280;28;20488;-76
2024/01/06 06:37:05;;;;;;;30.80;28.57;;;;;;;;;;5007275;28;20502;-75
2024/01/06 06:39:32;;;;;;;31.73;29.47;;;;;;;;;;5010683;28;20477;-74
2024/01/06 06:42:01;;;;;;;30.50;28.27;;;;;;;;;;5010318;28;20456;-75
2024/01/06 06:44:28;;;;;;;29.90;27.83;;;;;;;;;;5010104;28;20456;-76
2024/01/06 06:46:55;;;;;;;30.67;28.37;;;;;;;;;;5010357;28;20476;-75
2024/01/06 06:49:22;;;;;;;29.93;27.53;;;;;;;;;;5010121;28;20468;-75
2024/01/06 06:51:49;;;;;;;30.90;28.70;;;;;;;;;;5009844;28;20448;-74
2024/01/06 06:54:17;;;;;;;28.37;26.37;;;;;;;;;;5015264;28;20448;-81
2024/01/06 06:56:44;;;;;;;28.50;26.70;;;;;;;;;;5015808;28;20513;-81
2024/01/06 06:59:12;;;;;;;29.30;27.23;;;;;;;;;;5015332;28;20461;-81
2024/01/06 07:01:39;;;;;;;27.63;25.63;;;;;;;;;;5013721;28;20472;-80
2024/01/06 07:04:06;;;;;;;28.73;26.60;;;;;;;;;;5015345;28;20625;-82
2024/01/06 07:06:32;;;;;;;29.63;27.50;;;;;;;;;;5016035;28;20469;-82
2024/01/06 07:08:59;;;;;;;31.57;29.10;;;;;;;;;;5015530;28;20455;-82
2024/01/06 07:11:27;;;;;;;29.43;27.23;;;;;;;;;;5015592;28;20460;-80
2024/01/06 07:13:54;;;;;;;30.80;28.27;;;;;;;;;;5015746;28;20445;-83
2024/01/06 07:16:22;;;;;;;30.57;28.27;;;;;;;;;;5013916;28;20484;-82
2024/01/06 07:18:49;;;;;;;33.43;30.63;;;;;;;;;;4996503;28;20469;-81
2024/01/06 07:21:16;;;;;;;36.37;33.33;;;;;;;;;;4995312;28;20894;-81
2024/01/06 07:23:43;;;;;;;28.20;26.17;;;;;;;;;;4996305;28;20453;-81
2024/01/06 07:26:10;;;;;;;29.40;27.00;;;;;;;;;;4995908;28;20457;-81
2024/01/06 07:28:38;;;;;;;29.10;27.00;;;;;;;;;;4996316;28;20438;-81
2024/01/06 07:31:05;;;;;;;28.33;26.33;;;;;;;;;;5009809;28;20459;-82
2024/01/06 07:33:33;;;;;;;28.40;26.40;;;;;;;;;;5015248;28;20476;-81
2024/01/06 07:36:00;;;;;;;26.10;24.10;;;;;;;;;;5015682;28;20494;-82
2024/01/06 07:38:30;;;;;;;28.87;26.47;;;;;;;;;;5014270;28;20544;-81
2024/01/06 07:40:57;;;;;;;28.80;26.70;;;;;;;;;;4994758;28;20487;-83
2024/01/06 07:43:24;;;;;;;25.63;23.93;;;;;;;;;;4995688;28;20450;-81
2024/01/06 07:45:51;;;;;;;26.33;24.43;;;;;;;;;;4995927;28;20457;-81
2024/01/06 07:48:18;;;;;;;27.33;24.97;;;;;;;;;;4995885;28;20604;-83
2024/01/06 07:50:47;;;;;;;26.03;24.03;;;;;;;;;;4995653;28;21053;-82
2024/01/06 07:53:14;;;;;;;26.55;24.55;;;;;;;;;;4996092;28;20432;-82
2024/01/06 07:55:41;;;;;;;27.48;25.10;;;;;;;;;;4998686;28;20297;-81
2024/01/06 07:58:08;;;;;;;25.45;23.55;;;;;;;;;;4999813;28;20254;-81
2024/01/06 08:00:35;;;;;;;25.63;23.63;;;;;;;;;;4999696;28;20277;-82
2024/01/06 08:03:05;;;;;;;27.15;25.05;;;;;;;;;;4999794;28;21133;-83
2024/01/06 08:05:33;;;;;;;26.93;24.83;;;;;;;;;;5000044;28;20233;-82
2024/01/06 08:08:01;;;;;;;26.60;24.40;;;;;;;;;;4999901;28;20499;-83
2024/01/06 08:10:28;;;;;;;27.17;25.20;;;;;;;;;;4999703;28;20210;-85
2024/01/06 08:12:55;;;;;;;25.52;23.52;;;;;;;;;;4998959;28;20261;-80
2024/01/06 08:15:23;;;;;;;28.33;26.23;;;;;;;;;;4999420;28;20210;-81
2024/01/06 08:17:50;;;;;;;26.03;24.03;;;;;;;;;;4998743;28;20234;-79
2024/01/06 08:20:17;;;;;;;27.20;25.10;;;;;;;;;;4998520;28;20488;-82
2024/01/06 08:22:44;;;;;;;26.70;24.20;;;;;;;;;;5003149;28;20610;-81
2024/01/06 08:25:13;;;;;;;25.80;23.63;;;;;;;;;;4997899;28;20194;-82
2024/01/06 08:27:40;;;;;;;25.93;24.03;;;;;;;;;;4998615;28;20230;-81
2024/01/06 08:30:08;;;;;;;28.25;25.48;;;;;;;;;;4998978;28;20428;-84
2024/01/06 08:32:35;;;;;;;26.70;24.43;;;;;;;;;;5018191;28;20237;-81
2024/01/06 08:35:02;;;;;;;25.00;22.87;;;;;;;;;;5017929;28;20913;-82
2024/01/06 08:37:29;;;;;;;26.43;24.33;;;;;;;;;;5018150;28;20519;-81
2024/01/06 08:39:56;;;;;;;27.90;25.30;;;;;;;;;;5018723;28;20515;-81
2024/01/06 08:42:25;;;;;;;28.00;25.63;;;;;;;;;;5017623;28;20487;-82
2024/01/06 08:44:52;;;;;;;26.90;24.73;;;;;;;;;;5015625;28;20461;-81
2024/01/06 08:47:20;;;;;;;27.25;24.95;;;;;;;;;;4998422;28;20219;-81
2024/01/06 08:49:47;;;;;;;28.00;25.80;;;;;;;;;;4998077;28;20199;-80
2024/01/06 08:52:14;;;;;;;26.13;23.97;;;;;;;;;;5002596;28;20214;-89
2024/01/06 08:54:41;;;;;;;26.23;23.92;;;;;;;;;;5024394;28;20488;-86
2024/01/06 08:57:08;;;;;;;27.07;24.67;;;;;;;;;;5027259;28;20240;-85
2024/01/06 08:59:36;;;;;;;26.77;24.67;;;;;;;;;;5027362;28;20444;-85
2024/01/06 09:02:03;;;;;;;27.25;25.15;;;;;;;;;;5031450;28;20222;-82
2024/01/06 09:04:30;;;;;;;26.00;23.77;;;;;;;;;;5008917;28;20318;-84
2024/01/06 09:06:57;;;;;;;28.33;25.77;;;;;;;;;;5011390;28;20960;-83
2024/01/06 09:09:24;;;;;;;26.17;24.17;;;;;;;;;;5021698;28;20221;-83
2024/01/06 09:11:52;;;;;;;28.35;25.67;;;;;;;;;;5013212;28;20653;-85
2024/01/06 09:14:19;;;;;;;27.25;24.85;;;;;;;;;;5020369;28;20558;-85
2024/01/06 09:16:48;;;;;;;28.65;26.35;;;;;;;;;;5026516;28;20252;-83
2024/01/06 09:19:15;;;;;;;28.80;26.40;;;;;;;;;;5018285;28;20268;-82
2024/01/06 09:21:42;;;;;;;25.15;23.15;;;;;;;;;;5017021;28;20229;-82
2024/01/06 09:24:09;;;;;;;26.95;24.55;;;;;;;;;;5018096;28;20205;-80
2024/01/06 09:26:36;;;;;;;25.70;23.30;;;;;;;;;;5020768;28;20229;-80
2024/01/06 09:29:03;;;;;;;25.75;23.60;;;;;;;;;;5021507;28;20279;-79
2024/01/06 09:31:30;;;;;;;28.20;25.80;;;;;;;;;;5019706;28;20229;-80
2024/01/06 09:34:02;;;;;;;26.15;23.98;;;;;;;;;;5019953;28;20954;-79
2024/01/06 09:36:29;;;;;;;25.05;22.95;;;;;;;;;;5021516;28;20223;-80
2024/01/06 09:38:56;;;;;;;26.73;24.33;;;;;;;;;;5022183;28;20214;-80
2024/01/06 09:41:23;;;;;;;27.60;25.08;;;;;;;;;;5021486;28;20488;-80
2024/01/06 09:43:50;;;;;;;25.60;23.30;;;;;;;;;;5021418;28;20201;-80
2024/01/06 09:46:19;;;;;;;26.15;23.85;;;;;;;;;;5006399;28;20451;-80
2024/01/06 09:48:47;;;;;;;25.90;23.55;;;;;;;;;;5021417;28;20240;-80
2024/01/06 09:51:15;;;;;;;24.80;22.70;;;;;;;;;;5020102;28;20614;-79
2024/01/06 09:53:44;;;;;;;31.53;28.43;;;;;;;;;;5020808;28;20427;-79
2024/01/06 09:56:12;;;;;;;27.70;25.10;;;;;;;;;;5020781;28;20449;-80
2024/01/06 09:58:40;;;;;;;28.17;25.27;;;;;;;;;;5020290;28;20496;-80
2024/01/06 10:01:08;;;;;;;26.97;24.30;;;;;;;;;;5020277;28;20476;-80
2024/01/06 10:03:35;;;;;;;26.75;24.40;;;;;;;;;;5020220;28;20465;-80
2024/01/06 10:06:04;;;;;;;28.63;25.92;;;;;;;;;;5017484;28;20677;-79
2024/01/06 10:08:33;;;;;;;25.80;23.70;;;;;;;;;;5016537;28;20233;-78
2024/01/06 10:11:01;;;;;;;28.47;25.60;;;;;;;;;;5016011;28;20452;-80
2024/01/06 10:13:28;;;;;;;25.55;23.55;;;;;;;;;;5021125;28;20456;-79
2024/01/06 10:15:55;;;;;;;26.02;23.83;;;;;;;;;;5020365;28;20221;-79
2024/01/06 10:18:22;;;;;;;25.90;23.80;;;;;;;;;;5023028;28;20225;-79
2024/01/06 10:20:49;;;;;;;26.33;24.20;;;;;;;;;;5035350;28;20537;-78
2024/01/06 10:23:16;;;;;;;27.97;25.67;;;;;;;;;;5036855;28;20451;-79
2024/01/06 10:25:44;;;;;;;26.25;24.10;;;;;;;;;;5039983;28;20517;-80
2024/01/06 10:28:13;;;;;;;25.27;23.53;;;;;;;;;;5039097;28;20271;-79
2024/01/06 10:30:40;;;;;;;25.73;23.83;;;;;;;;;;5038866;28;20517;-79
2024/01/06 10:33:09;;;;;;;27.73;25.50;;;;;;;;;;5028947;28;20460;-79
2024/01/06 10:35:36;;;;;;;25.37;23.17;;;;;;;;;;5017651;28;20209;-84
2024/01/06 10:38:04;;;;;;;27.67;25.48;;;;;;;;;;5011179;28;20457;-83
2024/01/06 10:40:31;;;;;;;47.00;42.65;;;;;;;;;;5000431;28;20655;-84
2024/01/06 10:42:59;;;;;;;65.65;59.20;;;;;;;;;;4999982;28;20206;-83
2024/01/06 10:45:26;;;;;;;45.17;41.60;;;;;;;;;;4993799;28;20288;-79
2024/01/06 10:47:54;;;;;;;24.00;22.17;;;;;;;;;;4993251;28;20469;-79
2024/01/06 10:50:22;;;;;;;24.15;22.10;;;;;;;;;;4992573;28;20249;-79
2024/01/06 10:52:49;;;;;;;25.08;23.08;;;;;;;;;;4992963;28;20257;-78
2024/01/06 10:55:17;;;;;;;24.30;22.20;;;;;;;;;;4992766;28;20272;-79
2024/01/06 10:57:45;;;;;;;24.40;22.50;;;;;;;;;;4992384;28;20231;-79
2024/01/06 11:00:14;;;;;;;26.13;23.92;;;;;;;;;;4992614;28;20812;-78
2024/01/06 11:02:41;;;;;;;25.63;23.60;;;;;;;;;;5002525;28;20237;-79
2024/01/06 11:05:10;;;;;;;27.03;24.53;;;;;;;;;;5013143;28;20196;-78
2024/01/06 11:07:38;;;;;;;25.10;23.20;;;;;;;;;;5012112;28;20499;-79
2024/01/06 11:10:07;;;;;;;27.47;25.13;;;;;;;;;;5012688;28;20333;-77
2024/01/06 11:12:34;;;;;;;25.70;23.60;;;;;;;;;;5012267;28;20451;-78
2024/01/06 11:15:03;;;;;;;28.33;26.00;;;;;;;;;;5012260;28;20452;-78
2024/01/06 11:17:49;;;;;;;25.35;23.13;;;;;;;;;;5011800;28;20225;-78
2024/01/06 11:20:17;;;;;;;24.40;22.60;;;;;;;;;;5011882;28;20202;-78
2024/01/06 11:22:45;;;;;;;24.73;22.83;;;;;;;;;;5011703;28;20546;-79
2024/01/06 11:25:15;;;;;;;26.83;24.23;;;;;;;;;;5012290;28;20448;-78
2024/01/06 11:27:44;;;;;;;26.02;24.10;;;;;;;;;;5011190;28;20435;-77
2024/01/06 11:30:20;;;;;;;24.80;23.07;;;;;;;;;;4996128;28;20237;-78
2024/01/06 11:32:47;;;;;;;26.15;23.95;;;;;;;;;;5016367;28;20500;-77
2024/01/06 11:35:15;;;;;;;24.83;22.77;;;;;;;;;;5036192;28;20228;-78
2024/01/06 11:37:54;;;;;;;24.27;22.35;;;;;;;;;;5035224;28;20283;-79
2024/01/06 11:40:26;;;;;;;25.42;23.33;;;;;;;;;;5015821;28;20243;-80
2024/01/06 11:42:59;;;;;;;24.90;23.10;;;;;;;;;;5001641;28;20241;-77
2024/01/06 11:45:27;;;;;;;24.75;22.60;;;;;;;;;;4995924;28;20206;-78
2024/01/06 11:47:56;;;;;;;24.90;23.10;;;;;;;;;;4995592;28;20226;-78
2024/01/06 11:50:23;;;;;;;24.92;23.00;;;;;;;;;;4995834;28;20214;-77
2024/01/06 11:52:51;;;;;;;24.92;23.02;;;;;;;;;;4998204;28;20688;-79
2024/01/06 11:55:20;;;;;;;24.40;22.63;;;;;;;;;;5025483;28;20224;-82
2024/01/06 11:57:49;;;;;;;24.27;22.37;;;;;;;;;;5023268;28;20295;-82
2024/01/06 12:00:16;;;;;;;25.25;23.45;;;;;;;;;;5024187;28;20445;-82
2024/01/06 12:02:43;;;;;;;23.07;21.47;;;;;;;;;;5025004;28;20229;-84
2024/01/06 12:05:14;;;;;;;23.43;21.57;;;;;;;;;;5014547;28;20457;-86
2024/01/06 12:07:42;;;;;;;23.47;21.77;;;;;;;;;;5003625;28;20557;-85
2024/01/06 12:10:10;;;;;;;24.40;22.70;;;;;;;;;;5000657;28;20406;-83
2024/01/06 12:12:38;;;;;;;46.30;38.60;;;;;;;;;;5018113;28;20873;-78
2024/01/06 12:15:09;;;;;;;26.35;24.25;;;;;;;;;;5017012;28;20205;-78
2024/01/06 12:17:37;;;;;;;22.45;20.80;;;;;;;;;;5016270;28;20225;-79
2024/01/06 12:20:04;;;;;;;25.38;23.58;;;;;;;;;;5017009;28;20214;-78
2024/01/06 12:22:31;;;;;;;41.25;37.42;;;;;;;;;;5015642;28;20229;-79
2024/01/06 12:25:00;;;;;;;31.23;28.60;;;;;;;;;;5018848;28;20237;-86
2024/01/06 12:27:27;;;;;;;71.70;65.10;;;;;;;;;;5023943;28;20484;-79
2024/01/06 12:29:55;;;;;;;36.67;33.70;;;;;;;;;;5021815;28;20479;-84
2024/01/06 12:32:22;;;;;;;40.47;37.67;;;;;;;;;;5022471;28;20424;-82
2024/01/06 12:34:50;;;;;;;24.02;22.38;;;;;;;;;;5022164;28;20467;-79
2024/01/06 12:37:18;;;;;;;24.80;23.10;;;;;;;;;;5023205;28;20232;-85
2024/01/06 12:39:45;;;;;;;22.55;20.92;;;;;;;;;;5020365;28;20515;-81
2024/01/06 12:42:12;;;;;;;23.80;22.13;;;;;;;;;;5019474;28;20233;-83
2024/01/06 12:44:39;;;;;;;23.95;22.10;;;;;;;;;;5020747;28;20465;-83
2024/01/06 12:47:08;;;;;;;23.37;21.67;;;;;;;;;;5021026;28;20317;-82
2024/01/06 12:49:35;;;;;;;21.45;19.95;;;;;;;;;;5020579;28;20440;-83
2024/01/06 12:52:02;;;;;;;21.08;19.48;;;;;;;;;;5020583;28;20264;-82
2024/01/06 12:54:29;;;;;;;22.63;20.92;;;;;;;;;;5020106;28;20218;-81
2024/01/06 12:56:56;;;;;;;20.60;19.30;;;;;;;;;;5020632;28;20221;-80
2024/01/06 12:59:23;;;;;;;20.65;19.25;;;;;;;;;;5021338;28;20213;-77
2024/01/06 13:01:50;;;;;;;21.37;20.00;;;;;;;;;;5011553;28;20234;-78
2024/01/06 13:04:18;;;;;;;21.55;20.02;;;;;;;;;;5015515;28;20929;-77
2024/01/06 13:06:45;;;;;;;22.37;20.97;;;;;;;;;;5016176;28;20244;-81
2024/01/06 13:09:16;;;;;;;22.40;20.90;;;;;;;;;;5014195;28;20879;-79
2024/01/06 13:11:45;;;;;;;21.67;20.27;;;;;;;;;;5011515;28;20490;-79
2024/01/06 13:14:12;;;;;;;21.35;19.98;;;;;;;;;;5017052;28;20461;-80
2024/01/06 13:16:39;;;;;;;20.90;19.60;;;;;;;;;;5019651;28;20230;-79
2024/01/06 13:19:06;;;;;;;20.60;19.30;;;;;;;;;;5019416;28;20259;-80
2024/01/06 13:21:35;;;;;;;21.42;20.13;;;;;;;;;;5019927;28;20267;-78
2024/01/06 13:24:04;;;;;;;19.88;18.58;;;;;;;;;;5019943;28;20212;-79
2024/01/06 13:26:31;;;;;;;21.08;19.88;;;;;;;;;;5019863;28;20225;-79
2024/01/06 13:28:58;;;;;;;20.38;19.23;;;;;;;;;;5019882;28;20272;-77
2024/01/06 13:31:26;;;;;;;21.87;20.27;;;;;;;;;;5019191;28;20267;-79
2024/01/06 13:33:53;;;;;;;21.77;20.37;;;;;;;;;;5019841;28;20461;-79
2024/01/06 13:36:21;;;;;;;19.88;18.67;;;;;;;;;;5019812;28;20452;-79
2024/01/06 13:38:49;;;;;;;19.90;18.70;;;;;;;;;;5019640;28;20280;-80
2024/01/06 13:41:17;;;;;;;19.67;18.57;;;;;;;;;;5018012;28;20287;-79
2024/01/06 13:43:44;;;;;;;19.35;18.25;;;;;;;;;;5019126;28;20480;-79
2024/01/06 13:46:13;;;;;;;20.70;19.50;;;;;;;;;;5018911;28;20269;-79
2024/01/06 13:48:41;;;;;;;20.73;19.40;;;;;;;;;;5018721;28;20480;-79
2024/01/06 13:51:08;;;;;;;19.95;18.85;;;;;;;;;;5018489;28;20587;-79
2024/01/06 13:53:35;;;;;;;21.37;20.07;;;;;;;;;;5017159;28;20209;-80
2024/01/06 13:56:04;;;;;;;22.23;20.55;;;;;;;;;;5019042;28;20452;-80
2024/01/06 13:58:31;;;;;;;19.75;18.75;;;;;;;;;;5019345;28;20226;-81
2024/01/06 14:00:58;;;;;;;21.63;20.38;;;;;;;;;;5018867;28;20642;-80
2024/01/06 14:03:25;;;;;;;21.70;20.40;;;;;;;;;;5019035;28;20285;-80
2024/01/06 14:05:53;;;;;;;21.85;20.58;;;;;;;;;;5018321;28;20487;-79
2024/01/06 14:08:20;;;;;;;21.60;20.43;;;;;;;;;;5018868;28;20233;-79
2024/01/06 14:10:47;;;;;;;23.55;22.15;;;;;;;;;;5018629;28;20527;-78
2024/01/06 14:13:16;;;;;;;23.37;22.07;;;;;;;;;;5018108;28;20206;-78
2024/01/06 14:15:43;;;;;;;23.65;22.25;;;;;;;;;;5018304;28;20470;-79
2024/01/06 14:18:12;;;;;;;21.33;20.23;;;;;;;;;;5017655;28;20225;-80